sensor_id;sensor_type;location;lat;lon;timestamp;P1;durP1;ratioP1;P2;durP2;ratioP2
64609;SDS011;51019;46.090;6.350;2022-07-23T00:00:06;13.65;;;6.35;;
64609;SDS011;51019;46.090;6.350;2022-07-23T00:02:33;14.15;;;6.32;;
64609;SDS011;51019;46.090;6.350;2022-07-23T00:04:59;13.93;;;6.25;;
64609;SDS011;51019;46.090;6.350;2022-07-23T00:07:24;15.90;;;6.75;;
64609;SDS011;51019;46.090;6.350;2022-07-23T00:09:50;14.35;;;6.75;;
64609;SDS011;51019;46.090;6.350;2022-07-23T00:12:15;16.27;;;6.80;;
64609;SDS011;51019;46.090;6.350;2022-07-23T00:14:41;16.23;;;6.30;;
64609;SDS011;51019;46.090;6.350;2022-07-23T00:17:06;14.10;;;6.90;;
64609;SDS011;51019;46.090;6.350;2022-07-23T00:19:32;14.65;;;7.22;;
64609;SDS011;51019;46.090;6.350;2022-07-23T00:21:57;14.15;;;6.65;;
64609;SDS011;51019;46.090;6.350;2022-07-23T00:24:22;14.60;;;7.15;;
64609;SDS011;51019;46.090;6.350;2022-07-23T00:26:48;14.18;;;6.07;;
64609;SDS011;51019;46.090;6.350;2022-07-23T00:29:13;14.90;;;6.60;;
64609;SDS011;51019;46.090;6.350;2022-07-23T00:31:39;14.52;;;6.72;;
64609;SDS011;51019;46.090;6.350;2022-07-23T00:34:04;14.50;;;6.82;;
64609;SDS011;51019;46.090;6.350;2022-07-23T00:36:30;15.50;;;7.35;;
64609;SDS011;51019;46.090;6.350;2022-07-23T00:38:59;12.82;;;6.10;;
64609;SDS011;51019;46.090;6.350;2022-07-23T00:41:24;14.57;;;6.95;;
64609;SDS011;51019;46.090;6.350;2022-07-23T00:43:50;16.20;;;6.68;;
64609;SDS011;51019;46.090;6.350;2022-07-23T00:46:19;15.57;;;6.75;;
64609;SDS011;51019;46.090;6.350;2022-07-23T00:48:48;21.30;;;7.15;;
64609;SDS011;51019;46.090;6.350;2022-07-23T00:51:16;13.98;;;6.63;;
64609;SDS011;51019;46.090;6.350;2022-07-23T00:53:42;13.82;;;6.90;;
64609;SDS011;51019;46.090;6.350;2022-07-23T00:56:09;15.15;;;6.15;;
64609;SDS011;51019;46.090;6.350;2022-07-23T00:58:35;17.42;;;7.45;;
64609;SDS011;51019;46.090;6.350;2022-07-23T01:01:01;15.07;;;6.85;;
64609;SDS011;51019;46.090;6.350;2022-07-23T01:03:27;26.55;;;7.45;;
64609;SDS011;51019;46.090;6.350;2022-07-23T01:05:56;19.17;;;8.02;;
64609;SDS011;51019;46.090;6.350;2022-07-23T01:08:22;17.45;;;8.10;;
64609;SDS011;51019;46.090;6.350;2022-07-23T01:10:48;19.02;;;8.43;;
64609;SDS011;51019;46.090;6.350;2022-07-23T01:13:14;17.77;;;7.90;;
64609;SDS011;51019;46.090;6.350;2022-07-23T01:15:39;23.80;;;8.85;;
64609;SDS011;51019;46.090;6.350;2022-07-23T01:18:05;18.10;;;8.73;;
64609;SDS011;51019;46.090;6.350;2022-07-23T01:20:32;17.10;;;8.25;;
64609;SDS011;51019;46.090;6.350;2022-07-23T01:22:58;20.15;;;8.68;;
64609;SDS011;51019;46.090;6.350;2022-07-23T01:25:23;17.02;;;8.63;;
64609;SDS011;51019;46.090;6.350;2022-07-23T01:27:49;16.40;;;8.25;;
64609;SDS011;51019;46.090;6.350;2022-07-23T01:30:17;18.85;;;7.90;;
64609;SDS011;51019;46.090;6.350;2022-07-23T01:32:42;16.67;;;7.70;;
64609;SDS011;51019;46.090;6.350;2022-07-23T01:35:08;19.55;;;8.13;;
64609;SDS011;51019;46.090;6.350;2022-07-23T01:37:34;17.15;;;7.97;;
64609;SDS011;51019;46.090;6.350;2022-07-23T01:40:00;16.77;;;7.45;;
64609;SDS011;51019;46.090;6.350;2022-07-23T01:42:25;19.42;;;8.02;;
64609;SDS011;51019;46.090;6.350;2022-07-23T01:44:50;19.15;;;8.13;;
64609;SDS011;51019;46.090;6.350;2022-07-23T01:47:16;15.43;;;7.97;;
64609;SDS011;51019;46.090;6.350;2022-07-23T01:49:42;17.17;;;6.88;;
64609;SDS011;51019;46.090;6.350;2022-07-23T01:52:07;14.45;;;6.53;;
64609;SDS011;51019;46.090;6.350;2022-07-23T01:54:36;15.75;;;6.43;;
64609;SDS011;51019;46.090;6.350;2022-07-23T01:57:02;16.33;;;7.93;;
64609;SDS011;51019;46.090;6.350;2022-07-23T01:59:28;15.60;;;7.25;;
64609;SDS011;51019;46.090;6.350;2022-07-23T02:01:53;14.32;;;7.13;;
64609;SDS011;51019;46.090;6.350;2022-07-23T02:04:19;17.73;;;7.55;;
64609;SDS011;51019;46.090;6.350;2022-07-23T02:06:46;17.63;;;7.65;;
64609;SDS011;51019;46.090;6.350;2022-07-23T02:09:12;15.85;;;7.18;;
64609;SDS011;51019;46.090;6.350;2022-07-23T02:11:37;17.40;;;7.70;;
64609;SDS011;51019;46.090;6.350;2022-07-23T02:14:03;15.93;;;7.82;;
64609;SDS011;51019;46.090;6.350;2022-07-23T02:16:28;16.45;;;7.18;;
64609;SDS011;51019;46.090;6.350;2022-07-23T02:18:54;16.70;;;7.38;;
64609;SDS011;51019;46.090;6.350;2022-07-23T02:21:20;15.45;;;7.22;;
64609;SDS011;51019;46.090;6.350;2022-07-23T02:23:45;16.45;;;7.30;;
64609;SDS011;51019;46.090;6.350;2022-07-23T02:26:10;16.52;;;7.88;;
64609;SDS011;51019;46.090;6.350;2022-07-23T02:28:36;17.67;;;7.57;;
64609;SDS011;51019;46.090;6.350;2022-07-23T02:31:01;20.48;;;7.80;;
64609;SDS011;51019;46.090;6.350;2022-07-23T02:33:27;17.65;;;7.40;;
64609;SDS011;51019;46.090;6.350;2022-07-23T02:35:52;14.77;;;7.03;;
64609;SDS011;51019;46.090;6.350;2022-07-23T02:38:21;15.95;;;7.82;;
64609;SDS011;51019;46.090;6.350;2022-07-23T02:40:46;17.77;;;8.35;;
64609;SDS011;51019;46.090;6.350;2022-07-23T02:43:11;18.13;;;8.23;;
64609;SDS011;51019;46.090;6.350;2022-07-23T02:45:37;15.00;;;8.20;;
64609;SDS011;51019;46.090;6.350;2022-07-23T02:48:02;17.85;;;8.07;;
64609;SDS011;51019;46.090;6.350;2022-07-23T02:50:28;15.88;;;7.18;;
64609;SDS011;51019;46.090;6.350;2022-07-23T02:52:53;17.63;;;7.53;;
64609;SDS011;51019;46.090;6.350;2022-07-23T02:55:19;15.80;;;7.60;;
64609;SDS011;51019;46.090;6.350;2022-07-23T02:57:44;18.88;;;8.65;;
64609;SDS011;51019;46.090;6.350;2022-07-23T03:00:10;16.00;;;8.10;;
64609;SDS011;51019;46.090;6.350;2022-07-23T03:02:35;16.33;;;7.97;;
64609;SDS011;51019;46.090;6.350;2022-07-23T03:05:01;18.15;;;8.90;;
64609;SDS011;51019;46.090;6.350;2022-07-23T03:07:26;17.75;;;8.63;;
64609;SDS011;51019;46.090;6.350;2022-07-23T03:09:52;16.80;;;8.43;;
64609;SDS011;51019;46.090;6.350;2022-07-23T03:12:17;19.08;;;7.95;;
64609;SDS011;51019;46.090;6.350;2022-07-23T03:14:43;18.85;;;8.40;;
64609;SDS011;51019;46.090;6.350;2022-07-23T03:17:08;16.83;;;8.10;;
64609;SDS011;51019;46.090;6.350;2022-07-23T03:19:34;22.73;;;8.20;;
64609;SDS011;51019;46.090;6.350;2022-07-23T03:22:02;15.52;;;7.90;;
64609;SDS011;51019;46.090;6.350;2022-07-23T03:24:27;16.55;;;7.72;;
64609;SDS011;51019;46.090;6.350;2022-07-23T03:27:12;19.50;;;7.90;;
64609;SDS011;51019;46.090;6.350;2022-07-23T03:29:38;16.13;;;7.93;;
64609;SDS011;51019;46.090;6.350;2022-07-23T03:32:04;15.75;;;7.53;;
64609;SDS011;51019;46.090;6.350;2022-07-23T03:34:29;16.30;;;8.05;;
64609;SDS011;51019;46.090;6.350;2022-07-23T03:36:55;14.65;;;7.40;;
64609;SDS011;51019;46.090;6.350;2022-07-23T03:39:20;16.48;;;7.72;;
64609;SDS011;51019;46.090;6.350;2022-07-23T03:41:46;16.30;;;7.80;;
64609;SDS011;51019;46.090;6.350;2022-07-23T03:44:11;19.33;;;7.65;;
64609;SDS011;51019;46.090;6.350;2022-07-23T03:46:36;15.32;;;7.80;;
64609;SDS011;51019;46.090;6.350;2022-07-23T03:49:02;15.73;;;8.10;;
64609;SDS011;51019;46.090;6.350;2022-07-23T03:51:29;15.35;;;7.60;;
64609;SDS011;51019;46.090;6.350;2022-07-23T03:53:54;16.77;;;7.95;;
64609;SDS011;51019;46.090;6.350;2022-07-23T03:56:20;19.20;;;9.10;;
64609;SDS011;51019;46.090;6.350;2022-07-23T03:58:46;16.17;;;8.02;;
64609;SDS011;51019;46.090;6.350;2022-07-23T04:01:12;15.20;;;7.95;;
64609;SDS011;51019;46.090;6.350;2022-07-23T04:03:37;15.48;;;7.65;;
64609;SDS011;51019;46.090;6.350;2022-07-23T04:06:03;16.45;;;7.50;;
64609;SDS011;51019;46.090;6.350;2022-07-23T04:08:28;18.50;;;8.20;;
64609;SDS011;51019;46.090;6.350;2022-07-23T04:10:54;15.30;;;7.55;;
64609;SDS011;51019;46.090;6.350;2022-07-23T04:13:20;16.13;;;8.00;;
64609;SDS011;51019;46.090;6.350;2022-07-23T04:15:46;16.05;;;7.97;;
64609;SDS011;51019;46.090;6.350;2022-07-23T04:18:12;17.60;;;8.20;;
64609;SDS011;51019;46.090;6.350;2022-07-23T04:20:37;16.38;;;7.88;;
64609;SDS011;51019;46.090;6.350;2022-07-23T04:23:03;16.20;;;8.27;;
64609;SDS011;51019;46.090;6.350;2022-07-23T04:25:28;17.15;;;7.88;;
64609;SDS011;51019;46.090;6.350;2022-07-23T04:27:54;16.92;;;8.38;;
64609;SDS011;51019;46.090;6.350;2022-07-23T04:30:19;17.90;;;8.23;;
64609;SDS011;51019;46.090;6.350;2022-07-23T04:32:45;18.73;;;8.27;;
64609;SDS011;51019;46.090;6.350;2022-07-23T04:35:10;18.73;;;8.93;;
64609;SDS011;51019;46.090;6.350;2022-07-23T04:37:35;17.50;;;8.80;;
64609;SDS011;51019;46.090;6.350;2022-07-23T04:40:01;16.55;;;7.63;;
64609;SDS011;51019;46.090;6.350;2022-07-23T04:42:26;16.65;;;8.32;;
64609;SDS011;51019;46.090;6.350;2022-07-23T04:44:51;16.95;;;7.80;;
64609;SDS011;51019;46.090;6.350;2022-07-23T04:47:17;17.27;;;8.20;;
64609;SDS011;51019;46.090;6.350;2022-07-23T04:49:42;16.80;;;8.57;;
64609;SDS011;51019;46.090;6.350;2022-07-23T04:52:08;17.95;;;8.25;;
64609;SDS011;51019;46.090;6.350;2022-07-23T04:54:33;15.30;;;7.70;;
64609;SDS011;51019;46.090;6.350;2022-07-23T04:56:58;18.25;;;8.63;;
64609;SDS011;51019;46.090;6.350;2022-07-23T04:59:24;20.83;;;8.73;;
64609;SDS011;51019;46.090;6.350;2022-07-23T05:01:49;18.05;;;8.23;;
64609;SDS011;51019;46.090;6.350;2022-07-23T05:04:14;17.58;;;8.57;;
64609;SDS011;51019;46.090;6.350;2022-07-23T05:06:40;16.27;;;8.38;;
64609;SDS011;51019;46.090;6.350;2022-07-23T05:09:05;16.63;;;8.20;;
64609;SDS011;51019;46.090;6.350;2022-07-23T05:11:31;17.90;;;8.20;;
64609;SDS011;51019;46.090;6.350;2022-07-23T05:13:56;18.02;;;8.60;;
64609;SDS011;51019;46.090;6.350;2022-07-23T05:16:21;18.55;;;8.27;;
64609;SDS011;51019;46.090;6.350;2022-07-23T05:18:47;15.50;;;8.40;;
64609;SDS011;51019;46.090;6.350;2022-07-23T05:21:12;15.63;;;7.85;;
64609;SDS011;51019;46.090;6.350;2022-07-23T05:23:38;16.48;;;8.20;;
64609;SDS011;51019;46.090;6.350;2022-07-23T05:26:03;16.83;;;8.32;;
64609;SDS011;51019;46.090;6.350;2022-07-23T05:28:28;18.55;;;8.15;;
64609;SDS011;51019;46.090;6.350;2022-07-23T05:30:54;17.27;;;8.27;;
64609;SDS011;51019;46.090;6.350;2022-07-23T05:33:19;17.17;;;9.00;;
64609;SDS011;51019;46.090;6.350;2022-07-23T05:35:45;15.70;;;8.70;;
64609;SDS011;51019;46.090;6.350;2022-07-23T05:38:10;18.00;;;9.18;;
64609;SDS011;51019;46.090;6.350;2022-07-23T05:40:35;16.67;;;8.52;;
64609;SDS011;51019;46.090;6.350;2022-07-23T05:43:01;17.52;;;8.32;;
64609;SDS011;51019;46.090;6.350;2022-07-23T05:45:26;18.58;;;8.60;;
64609;SDS011;51019;46.090;6.350;2022-07-23T05:47:52;16.77;;;8.27;;
64609;SDS011;51019;46.090;6.350;2022-07-23T05:50:17;16.88;;;8.00;;
64609;SDS011;51019;46.090;6.350;2022-07-23T05:52:43;17.38;;;9.00;;
64609;SDS011;51019;46.090;6.350;2022-07-23T05:55:09;18.42;;;8.70;;
64609;SDS011;51019;46.090;6.350;2022-07-23T05:57:37;18.02;;;8.07;;
64609;SDS011;51019;46.090;6.350;2022-07-23T06:00:03;17.60;;;9.20;;
64609;SDS011;51019;46.090;6.350;2022-07-23T06:02:30;15.85;;;8.38;;
64609;SDS011;51019;46.090;6.350;2022-07-23T06:04:55;18.42;;;8.50;;
64609;SDS011;51019;46.090;6.350;2022-07-23T06:07:21;16.40;;;7.90;;
64609;SDS011;51019;46.090;6.350;2022-07-23T06:09:46;16.25;;;8.70;;
64609;SDS011;51019;46.090;6.350;2022-07-23T06:12:14;15.23;;;8.18;;
64609;SDS011;51019;46.090;6.350;2022-07-23T06:14:40;17.08;;;8.60;;
64609;SDS011;51019;46.090;6.350;2022-07-23T06:17:05;16.50;;;8.65;;
64609;SDS011;51019;46.090;6.350;2022-07-23T06:19:31;20.77;;;8.25;;
64609;SDS011;51019;46.090;6.350;2022-07-23T06:21:56;18.17;;;8.85;;
64609;SDS011;51019;46.090;6.350;2022-07-23T06:24:21;19.17;;;8.77;;
64609;SDS011;51019;46.090;6.350;2022-07-23T06:26:47;17.17;;;8.32;;
64609;SDS011;51019;46.090;6.350;2022-07-23T06:29:12;17.75;;;8.10;;
64609;SDS011;51019;46.090;6.350;2022-07-23T06:31:37;15.55;;;8.18;;
64609;SDS011;51019;46.090;6.350;2022-07-23T06:34:03;16.02;;;8.15;;
64609;SDS011;51019;46.090;6.350;2022-07-23T06:36:28;15.60;;;8.27;;
64609;SDS011;51019;46.090;6.350;2022-07-23T06:38:54;15.40;;;8.45;;
64609;SDS011;51019;46.090;6.350;2022-07-23T06:41:21;16.33;;;8.13;;
64609;SDS011;51019;46.090;6.350;2022-07-23T06:43:48;16.42;;;8.43;;
64609;SDS011;51019;46.090;6.350;2022-07-23T06:46:14;17.00;;;8.98;;
64609;SDS011;51019;46.090;6.350;2022-07-23T06:48:41;18.77;;;9.10;;
64609;SDS011;51019;46.090;6.350;2022-07-23T06:51:06;17.75;;;8.95;;
64609;SDS011;51019;46.090;6.350;2022-07-23T06:53:32;18.48;;;8.73;;
64609;SDS011;51019;46.090;6.350;2022-07-23T06:55:57;17.08;;;8.50;;
64609;SDS011;51019;46.090;6.350;2022-07-23T06:58:23;19.80;;;9.13;;
64609;SDS011;51019;46.090;6.350;2022-07-23T07:00:48;15.60;;;8.35;;
64609;SDS011;51019;46.090;6.350;2022-07-23T07:03:13;18.33;;;8.98;;
64609;SDS011;51019;46.090;6.350;2022-07-23T07:05:39;17.80;;;8.68;;
64609;SDS011;51019;46.090;6.350;2022-07-23T07:08:05;15.52;;;8.55;;
64609;SDS011;51019;46.090;6.350;2022-07-23T07:10:31;15.98;;;8.10;;
64609;SDS011;51019;46.090;6.350;2022-07-23T07:12:57;18.17;;;9.02;;
64609;SDS011;51019;46.090;6.350;2022-07-23T07:15:22;15.52;;;7.97;;
64609;SDS011;51019;46.090;6.350;2022-07-23T07:17:48;19.05;;;8.55;;
64609;SDS011;51019;46.090;6.350;2022-07-23T07:20:13;16.88;;;8.60;;
64609;SDS011;51019;46.090;6.350;2022-07-23T07:22:39;15.13;;;8.07;;
64609;SDS011;51019;46.090;6.350;2022-07-23T07:25:05;18.85;;;8.25;;
64609;SDS011;51019;46.090;6.350;2022-07-23T07:27:31;18.02;;;8.98;;
64609;SDS011;51019;46.090;6.350;2022-07-23T07:29:56;15.18;;;8.40;;
64609;SDS011;51019;46.090;6.350;2022-07-23T07:32:22;15.57;;;7.50;;
64609;SDS011;51019;46.090;6.350;2022-07-23T07:34:47;16.23;;;8.18;;
64609;SDS011;51019;46.090;6.350;2022-07-23T07:37:13;17.02;;;8.25;;
64609;SDS011;51019;46.090;6.350;2022-07-23T07:39:38;16.98;;;7.60;;
64609;SDS011;51019;46.090;6.350;2022-07-23T07:42:04;15.35;;;8.02;;
64609;SDS011;51019;46.090;6.350;2022-07-23T07:44:29;17.00;;;7.38;;
64609;SDS011;51019;46.090;6.350;2022-07-23T07:46:55;16.90;;;8.38;;
64609;SDS011;51019;46.090;6.350;2022-07-23T07:49:20;16.42;;;8.02;;
64609;SDS011;51019;46.090;6.350;2022-07-23T07:51:46;18.73;;;7.60;;
64609;SDS011;51019;46.090;6.350;2022-07-23T07:54:12;16.10;;;7.80;;
64609;SDS011;51019;46.090;6.350;2022-07-23T07:56:37;16.60;;;7.05;;
64609;SDS011;51019;46.090;6.350;2022-07-23T07:59:03;15.80;;;7.32;;
64609;SDS011;51019;46.090;6.350;2022-07-23T08:01:28;18.40;;;7.60;;
64609;SDS011;51019;46.090;6.350;2022-07-23T08:03:54;17.52;;;8.32;;
64609;SDS011;51019;46.090;6.350;2022-07-23T08:06:20;15.82;;;7.95;;
64609;SDS011;51019;46.090;6.350;2022-07-23T08:08:46;15.45;;;7.63;;
64609;SDS011;51019;46.090;6.350;2022-07-23T08:11:11;15.18;;;8.18;;
64609;SDS011;51019;46.090;6.350;2022-07-23T08:13:37;14.95;;;8.00;;
64609;SDS011;51019;46.090;6.350;2022-07-23T08:16:02;15.60;;;8.23;;
64609;SDS011;51019;46.090;6.350;2022-07-23T08:18:28;16.90;;;7.85;;
64609;SDS011;51019;46.090;6.350;2022-07-23T08:20:53;14.48;;;7.13;;
64609;SDS011;51019;46.090;6.350;2022-07-23T08:23:19;15.48;;;9.00;;
64609;SDS011;51019;46.090;6.350;2022-07-23T08:25:44;15.95;;;7.50;;
64609;SDS011;51019;46.090;6.350;2022-07-23T08:28:10;15.60;;;7.95;;
64609;SDS011;51019;46.090;6.350;2022-07-23T08:30:39;15.32;;;7.55;;
64609;SDS011;51019;46.090;6.350;2022-07-23T08:33:07;17.00;;;7.75;;
64609;SDS011;51019;46.090;6.350;2022-07-23T08:35:41;16.10;;;7.50;;
64609;SDS011;51019;46.090;6.350;2022-07-23T08:38:11;15.27;;;7.10;;
64609;SDS011;51019;46.090;6.350;2022-07-23T08:40:39;16.13;;;7.72;;
64609;SDS011;51019;46.090;6.350;2022-07-23T08:43:13;16.48;;;8.05;;
64609;SDS011;51019;46.090;6.350;2022-07-23T08:45:41;14.65;;;7.78;;
64609;SDS011;51019;46.090;6.350;2022-07-23T08:48:21;15.48;;;7.78;;
64609;SDS011;51019;46.090;6.350;2022-07-23T08:50:50;17.98;;;7.95;;
64609;SDS011;51019;46.090;6.350;2022-07-23T08:53:20;17.13;;;8.85;;
64609;SDS011;51019;46.090;6.350;2022-07-23T08:55:47;16.45;;;7.85;;
64609;SDS011;51019;46.090;6.350;2022-07-23T08:58:14;15.90;;;7.85;;
64609;SDS011;51019;46.090;6.350;2022-07-23T09:00:40;15.02;;;7.88;;
64609;SDS011;51019;46.090;6.350;2022-07-23T09:03:06;16.23;;;8.25;;
64609;SDS011;51019;46.090;6.350;2022-07-23T09:05:31;16.73;;;8.05;;
64609;SDS011;51019;46.090;6.350;2022-07-23T09:18:48;16.33;;;8.05;;
64609;SDS011;51019;46.090;6.350;2022-07-23T09:26:17;17.08;;;7.90;;
64609;SDS011;51019;46.090;6.350;2022-07-23T09:31:19;19.90;;;9.07;;
64609;SDS011;51019;46.090;6.350;2022-07-23T09:33:45;20.08;;;9.40;;
64609;SDS011;51019;46.090;6.350;2022-07-23T09:36:11;19.25;;;8.65;;
64609;SDS011;51019;46.090;6.350;2022-07-23T09:38:49;16.67;;;8.65;;
64609;SDS011;51019;46.090;6.350;2022-07-23T09:41:16;15.63;;;8.23;;
64609;SDS011;51019;46.090;6.350;2022-07-23T09:43:46;17.23;;;8.77;;
64609;SDS011;51019;46.090;6.350;2022-07-23T09:46:21;14.85;;;7.85;;
64609;SDS011;51019;46.090;6.350;2022-07-23T09:48:49;15.70;;;7.90;;
64609;SDS011;51019;46.090;6.350;2022-07-23T09:51:19;16.98;;;7.93;;
64609;SDS011;51019;46.090;6.350;2022-07-23T09:53:58;16.48;;;7.95;;
64609;SDS011;51019;46.090;6.350;2022-07-23T09:56:23;15.93;;;7.88;;
64609;SDS011;51019;46.090;6.350;2022-07-23T09:58:52;17.77;;;8.00;;
64609;SDS011;51019;46.090;6.350;2022-07-23T10:01:28;15.60;;;7.65;;
64609;SDS011;51019;46.090;6.350;2022-07-23T10:03:54;15.80;;;7.85;;
64609;SDS011;51019;46.090;6.350;2022-07-23T10:06:19;17.02;;;8.65;;
64609;SDS011;51019;46.090;6.350;2022-07-23T10:08:46;15.80;;;7.88;;
64609;SDS011;51019;46.090;6.350;2022-07-23T10:11:14;14.25;;;7.45;;
64609;SDS011;51019;46.090;6.350;2022-07-23T10:13:40;15.55;;;7.97;;
64609;SDS011;51019;46.090;6.350;2022-07-23T10:16:22;15.13;;;8.38;;
64609;SDS011;51019;46.090;6.350;2022-07-23T10:18:48;14.65;;;7.85;;
64609;SDS011;51019;46.090;6.350;2022-07-23T10:21:16;15.07;;;8.30;;
64609;SDS011;51019;46.090;6.350;2022-07-23T10:23:47;15.10;;;7.78;;
64609;SDS011;51019;46.090;6.350;2022-07-23T10:26:38;15.00;;;7.65;;
64609;SDS011;51019;46.090;6.350;2022-07-23T10:29:38;16.70;;;8.00;;
64609;SDS011;51019;46.090;6.350;2022-07-23T10:37:56;14.77;;;8.07;;
64609;SDS011;51019;46.090;6.350;2022-07-23T10:40:31;17.27;;;8.07;;
64609;SDS011;51019;46.090;6.350;2022-07-23T10:42:58;16.25;;;7.72;;
64609;SDS011;51019;46.090;6.350;2022-07-23T10:47:54;15.73;;;7.90;;
64609;SDS011;51019;46.090;6.350;2022-07-23T10:50:25;15.48;;;8.07;;
64609;SDS011;51019;46.090;6.350;2022-07-23T10:57:59;17.60;;;8.43;;
64609;SDS011;51019;46.090;6.350;2022-07-23T11:00:29;16.55;;;7.68;;
64609;SDS011;51019;46.090;6.350;2022-07-23T11:02:57;16.90;;;8.05;;
64609;SDS011;51019;46.090;6.350;2022-07-23T11:05:25;16.65;;;8.55;;
64609;SDS011;51019;46.090;6.350;2022-07-23T11:10:37;16.48;;;8.35;;
64609;SDS011;51019;46.090;6.350;2022-07-23T11:32:01;16.75;;;7.63;;
64609;SDS011;51019;46.090;6.350;2022-07-23T11:34:30;15.38;;;8.30;;
64609;SDS011;51019;46.090;6.350;2022-07-23T11:37:10;16.67;;;7.75;;
64609;SDS011;51019;46.090;6.350;2022-07-23T11:39:38;16.27;;;7.95;;
64609;SDS011;51019;46.090;6.350;2022-07-23T11:42:06;15.75;;;8.60;;
64609;SDS011;51019;46.090;6.350;2022-07-23T11:44:34;17.10;;;8.70;;
64609;SDS011;51019;46.090;6.350;2022-07-23T11:47:02;17.00;;;8.27;;
64609;SDS011;51019;46.090;6.350;2022-07-23T11:49:28;14.27;;;7.55;;
64609;SDS011;51019;46.090;6.350;2022-07-23T11:54:33;15.50;;;8.15;;
64609;SDS011;51019;46.090;6.350;2022-07-23T11:57:00;15.85;;;8.48;;
64609;SDS011;51019;46.090;6.350;2022-07-23T11:59:28;17.50;;;7.55;;
64609;SDS011;51019;46.090;6.350;2022-07-23T12:02:00;16.73;;;8.13;;
64609;SDS011;51019;46.090;6.350;2022-07-23T12:07:03;16.88;;;8.20;;
64609;SDS011;51019;46.090;6.350;2022-07-23T12:09:29;16.73;;;7.82;;
64609;SDS011;51019;46.090;6.350;2022-07-23T12:11:58;17.65;;;8.10;;
64609;SDS011;51019;46.090;6.350;2022-07-23T12:14:24;17.63;;;8.10;;
64609;SDS011;51019;46.090;6.350;2022-07-23T12:17:09;15.38;;;8.40;;
64609;SDS011;51019;46.090;6.350;2022-07-23T12:19:35;14.82;;;7.97;;
64609;SDS011;51019;46.090;6.350;2022-07-23T12:22:01;20.33;;;7.68;;
64609;SDS011;51019;46.090;6.350;2022-07-23T12:24:28;13.98;;;8.02;;
64609;SDS011;51019;46.090;6.350;2022-07-23T12:27:10;14.30;;;8.27;;
64609;SDS011;51019;46.090;6.350;2022-07-23T12:29:37;15.43;;;8.13;;
64609;SDS011;51019;46.090;6.350;2022-07-23T12:32:02;18.90;;;7.93;;
64609;SDS011;51019;46.090;6.350;2022-07-23T12:34:44;15.60;;;8.05;;
64609;SDS011;51019;46.090;6.350;2022-07-23T12:37:28;16.95;;;8.38;;
64609;SDS011;51019;46.090;6.350;2022-07-23T12:39:56;14.55;;;8.10;;
64609;SDS011;51019;46.090;6.350;2022-07-23T12:42:22;16.10;;;8.63;;
64609;SDS011;51019;46.090;6.350;2022-07-23T12:45:08;14.50;;;8.30;;
64609;SDS011;51019;46.090;6.350;2022-07-23T12:53:09;15.57;;;7.95;;
64609;SDS011;51019;46.090;6.350;2022-07-23T12:55:37;15.57;;;7.93;;
64609;SDS011;51019;46.090;6.350;2022-07-23T12:58:06;15.60;;;7.95;;
64609;SDS011;51019;46.090;6.350;2022-07-23T13:00:50;16.35;;;8.30;;
64609;SDS011;51019;46.090;6.350;2022-07-23T13:03:33;15.65;;;8.00;;
64609;SDS011;51019;46.090;6.350;2022-07-23T13:06:01;15.68;;;8.13;;
64609;SDS011;51019;46.090;6.350;2022-07-23T13:08:28;17.02;;;8.90;;
64609;SDS011;51019;46.090;6.350;2022-07-23T13:10:56;14.57;;;7.68;;
64609;SDS011;51019;46.090;6.350;2022-07-23T13:13:23;16.95;;;8.20;;
64609;SDS011;51019;46.090;6.350;2022-07-23T13:15:51;16.45;;;8.30;;
64609;SDS011;51019;46.090;6.350;2022-07-23T13:18:17;14.10;;;7.50;;
64609;SDS011;51019;46.090;6.350;2022-07-23T13:20:44;14.55;;;8.15;;
64609;SDS011;51019;46.090;6.350;2022-07-23T13:23:10;15.00;;;8.57;;
64609;SDS011;51019;46.090;6.350;2022-07-23T13:25:37;14.70;;;7.82;;
64609;SDS011;51019;46.090;6.350;2022-07-23T13:28:03;17.50;;;8.95;;
64609;SDS011;51019;46.090;6.350;2022-07-23T13:30:29;16.20;;;8.60;;
64609;SDS011;51019;46.090;6.350;2022-07-23T13:32:54;18.35;;;8.52;;
64609;SDS011;51019;46.090;6.350;2022-07-23T13:35:20;15.00;;;8.10;;
64609;SDS011;51019;46.090;6.350;2022-07-23T13:37:46;17.35;;;8.45;;
64609;SDS011;51019;46.090;6.350;2022-07-23T13:40:11;17.25;;;8.20;;
64609;SDS011;51019;46.090;6.350;2022-07-23T13:42:37;15.55;;;8.65;;
64609;SDS011;51019;46.090;6.350;2022-07-23T13:45:06;16.60;;;8.57;;
64609;SDS011;51019;46.090;6.350;2022-07-23T13:47:31;15.10;;;8.20;;
64609;SDS011;51019;46.090;6.350;2022-07-23T13:49:57;14.25;;;8.40;;
64609;SDS011;51019;46.090;6.350;2022-07-23T13:52:22;15.50;;;7.75;;
64609;SDS011;51019;46.090;6.350;2022-07-23T13:54:49;16.80;;;8.20;;
64609;SDS011;51019;46.090;6.350;2022-07-23T13:57:15;15.25;;;8.30;;
64609;SDS011;51019;46.090;6.350;2022-07-23T13:59:42;16.10;;;7.80;;
64609;SDS011;51019;46.090;6.350;2022-07-23T14:02:07;14.45;;;7.88;;
64609;SDS011;51019;46.090;6.350;2022-07-23T14:04:33;16.58;;;8.25;;
64609;SDS011;51019;46.090;6.350;2022-07-23T14:06:59;14.90;;;7.82;;
64609;SDS011;51019;46.090;6.350;2022-07-23T14:09:25;14.55;;;8.55;;
64609;SDS011;51019;46.090;6.350;2022-07-23T14:11:51;18.13;;;9.10;;
64609;SDS011;51019;46.090;6.350;2022-07-23T14:14:17;16.40;;;8.57;;
64609;SDS011;51019;46.090;6.350;2022-07-23T14:16:42;18.10;;;9.63;;
64609;SDS011;51019;46.090;6.350;2022-07-23T14:19:08;15.07;;;8.00;;
64609;SDS011;51019;46.090;6.350;2022-07-23T14:21:35;16.98;;;7.60;;
64609;SDS011;51019;46.090;6.350;2022-07-23T14:24:00;15.23;;;7.80;;
64609;SDS011;51019;46.090;6.350;2022-07-23T14:26:26;14.55;;;7.35;;
64609;SDS011;51019;46.090;6.350;2022-07-23T14:28:52;15.00;;;7.68;;
64609;SDS011;51019;46.090;6.350;2022-07-23T14:31:18;15.57;;;7.70;;
64609;SDS011;51019;46.090;6.350;2022-07-23T14:33:43;15.52;;;7.88;;
64609;SDS011;51019;46.090;6.350;2022-07-23T14:36:09;14.88;;;7.78;;
64609;SDS011;51019;46.090;6.350;2022-07-23T14:38:35;15.07;;;7.22;;
64609;SDS011;51019;46.090;6.350;2022-07-23T14:41:02;14.15;;;7.90;;
64609;SDS011;51019;46.090;6.350;2022-07-23T14:43:31;16.05;;;8.18;;
64609;SDS011;51019;46.090;6.350;2022-07-23T14:45:57;15.82;;;7.95;;
64609;SDS011;51019;46.090;6.350;2022-07-23T14:48:22;15.27;;;8.18;;
64609;SDS011;51019;46.090;6.350;2022-07-23T14:50:48;14.65;;;7.63;;
64609;SDS011;51019;46.090;6.350;2022-07-23T14:53:13;13.68;;;7.18;;
64609;SDS011;51019;46.090;6.350;2022-07-23T14:55:39;17.35;;;7.97;;
64609;SDS011;51019;46.090;6.350;2022-07-23T14:58:04;13.63;;;7.55;;
64609;SDS011;51019;46.090;6.350;2022-07-23T15:00:29;15.88;;;8.25;;
64609;SDS011;51019;46.090;6.350;2022-07-23T15:02:55;15.10;;;7.70;;
64609;SDS011;51019;46.090;6.350;2022-07-23T15:05:20;15.45;;;7.57;;
64609;SDS011;51019;46.090;6.350;2022-07-23T15:07:46;17.27;;;8.40;;
64609;SDS011;51019;46.090;6.350;2022-07-23T15:10:13;13.82;;;7.55;;
64609;SDS011;51019;46.090;6.350;2022-07-23T15:12:38;16.92;;;7.65;;
64609;SDS011;51019;46.090;6.350;2022-07-23T15:15:04;14.30;;;7.15;;
64609;SDS011;51019;46.090;6.350;2022-07-23T15:17:30;15.98;;;7.05;;
64609;SDS011;51019;46.090;6.350;2022-07-23T15:19:55;15.15;;;7.30;;
64609;SDS011;51019;46.090;6.350;2022-07-23T15:22:21;16.83;;;8.40;;
64609;SDS011;51019;46.090;6.350;2022-07-23T15:24:46;15.32;;;7.45;;
64609;SDS011;51019;46.090;6.350;2022-07-23T15:27:11;15.45;;;7.32;;
64609;SDS011;51019;46.090;6.350;2022-07-23T15:29:37;15.82;;;8.32;;
64609;SDS011;51019;46.090;6.350;2022-07-23T15:32:02;18.70;;;8.10;;
64609;SDS011;51019;46.090;6.350;2022-07-23T15:34:28;14.18;;;7.47;;